Time;durP1;ratioP1;P1;durP2;ratioP2;P2;SDS_P1;SDS_P2;PMS_P1;PMS_P2;Temp;Humidity;BMP_temperature;BMP_pressure;BME280_temperature;BME280_humidity;BME280_pressure;Samples;Min_cycle;Max_cycle;Signal;HPM_P1;HPM_P2
2023/03/29 00:01:41;;;;;;;0.10;0.10;;;-0.10;99.90;;;;;;5094074;28;20020;-78
2023/03/29 00:04:09;;;;;;;0.20;0.20;;;;;;;;;;5093580;28;20044;-78
2023/03/29 00:06:35;;;;;;;0.20;0.20;;;-0.30;99.90;;;;;;5086638;28;20036;-78
2023/03/29 00:09:04;;;;;;;0.20;0.20;;;-0.30;99.90;;;;;;5086680;28;20024;-78
2023/03/29 00:11:38;;;;;;;0.20;0.20;;;-0.20;99.90;;;;;;5086029;28;20032;-77
2023/03/29 00:14:04;;;;;;;0.20;0.20;;;-0.90;99.90;;;;;;5085243;28;20545;-77
2023/03/29 00:16:31;;;;;;;0.20;0.20;;;-0.20;99.90;;;;;;5064559;28;20162;-78
2023/03/29 00:18:57;;;;;;;0.20;0.20;;;-0.20;99.90;;;;;;5064944;28;20103;-78
2023/03/29 00:21:23;;;;;;;0.20;0.20;;;-0.20;99.90;;;;;;5083793;28;20015;-78
2023/03/29 00:23:49;;;;;;;0.20;0.20;;;-0.20;99.90;;;;;;5084712;28;20024;-78
2023/03/29 00:26:15;;;;;;;0.13;0.13;;;-0.10;99.90;;;;;;5063955;28;20452;-78
2023/03/29 00:28:42;;;;;;;0.10;0.10;;;-0.10;99.90;;;;;;5082782;28;20091;-78
2023/03/29 00:31:13;;;;;;;0.20;0.20;;;-0.20;99.90;;;;;;5082462;28;20631;-81
2023/03/29 00:33:40;;;;;;;0.20;0.20;;;-0.60;99.90;;;;;;5064154;28;20118;-78
2023/03/29 00:36:07;;;;;;;0.20;0.20;;;-0.60;99.90;;;;;;5083051;28;20039;-78
2023/03/29 00:38:34;;;;;;;0.20;0.20;;;-0.70;99.90;;;;;;5082095;28;20021;-78
2023/03/29 00:41:00;;;;;;;0.20;0.20;;;-0.70;99.90;;;;;;5063751;28;20040;-78
2023/03/29 00:43:26;;;;;;;0.17;0.17;;;-0.70;99.90;;;;;;5082571;28;20056;-78
2023/03/29 00:45:52;;;;;;;0.10;0.10;;;-0.80;99.90;;;;;;5078303;28;20093;-78
2023/03/29 00:48:26;;;;;;;0.20;0.20;;;-0.70;99.90;;;;;;5102768;27;20343;-78
2023/03/29 00:51:15;;;;;;;0.15;0.15;;;-0.70;99.90;;;;;;5086627;28;20468;-78
2023/03/29 00:53:47;;;;;;;0.10;0.10;;;-0.60;99.90;;;;;;5118893;28;20024;-78
2023/03/29 00:56:42;;;;;;;0.10;0.10;;;-0.50;99.90;;;;;;5116174;28;20020;-77
2023/03/29 00:59:26;;;;;;;0.20;0.20;;;-0.40;99.90;;;;;;5120452;28;20525;-78
2023/03/29 01:02:06;;;;;;;0.20;0.20;;;-0.30;99.90;;;;;;5121936;28;20023;-78
2023/03/29 01:05:02;;;;;;;0.20;0.20;;;-0.30;99.90;;;;;;5116495;28;20034;-78
2023/03/29 01:08:05;;;;;;;0.20;0.20;;;-0.60;99.90;;;;;;5109321;28;20036;-78
2023/03/29 01:10:47;;;;;;;0.10;0.10;;;-0.60;99.90;;;;;;5012758;28;20045;-78
2023/03/29 01:13:27;;;;;;;0.10;0.10;;;-0.50;99.90;;;;;;5012230;28;20050;-79
2023/03/29 01:15:55;;;;;;;0.10;0.10;;;-0.60;99.90;;;;;;4987847;28;20555;-80
2023/03/29 01:18:21;;;;;;;0.10;0.10;;;-0.50;99.90;;;;;;5005614;28;20112;-79
2023/03/29 01:21:23;;;;;;;11.80;11.30;;;-0.50;99.90;;;;;;4991954;28;20017;-78
2023/03/29 01:24:21;;;;;;;0.10;0.10;;;-0.50;99.90;;;;;;4933789;29;20039;-78
2023/03/29 01:27:01;;;;;;;17.07;15.47;;;-0.50;99.90;;;;;;4948461;29;20349;-78
2023/03/29 01:29:44;;;;;;;0.20;0.20;;;-0.40;99.90;;;;;;4946717;29;20031;-78
2023/03/29 01:32:29;;;;;;;0.13;0.13;;;-0.40;99.90;;;;;;4931760;29;20069;-78
2023/03/29 01:35:10;;;;;;;0.20;0.20;;;-0.40;99.90;;;;;;4947718;28;20053;-78
2023/03/29 01:37:48;;;;;;;0.20;0.20;;;-0.30;99.90;;;;;;4948517;29;20031;-79
2023/03/29 01:40:15;;;;;;;0.20;0.20;;;-0.30;99.90;;;;;;4952813;29;20039;-78
2023/03/29 01:43:08;;;;;;;0.10;0.10;;;-0.30;99.90;;;;;;4953665;29;20219;-78
2023/03/29 01:45:41;;;;;;;0.10;0.10;;;-0.30;99.90;;;;;;5010354;28;20354;-78
2023/03/29 01:48:16;;;;;;;0.10;0.10;;;-0.30;99.90;;;;;;5028353;28;20128;-78
2023/03/29 01:50:55;;;;;;;0.10;0.10;;;-0.40;99.90;;;;;;5007603;28;20093;-78
2023/03/29 01:54:06;;;;;;;0.17;0.17;;;-0.40;99.90;;;;;;5027301;28;20029;-79
2023/03/29 01:56:36;;;;;;;0.20;0.20;;;-0.30;99.90;;;;;;5004316;28;20034;-78
2023/03/29 01:59:27;;;;;;;0.20;0.20;;;-0.40;99.90;;;;;;5005001;28;20572;-78
2023/03/29 02:01:59;;;;;;;0.10;0.10;;;-0.50;99.90;;;;;;4986106;28;20543;-79
2023/03/29 02:04:36;;;;;;;1.03;1.03;;;-0.70;99.90;;;;;;4986780;28;20111;-78
2023/03/29 02:07:10;;;;;;;0.20;0.20;;;-1.30;99.90;;;;;;4985675;28;20045;-78
2023/03/29 02:09:37;;;;;;;0.10;0.10;;;-0.70;99.90;;;;;;5003642;28;20057;-78
2023/03/29 02:12:05;;;;;;;0.10;0.10;;;-0.70;99.90;;;;;;5001985;28;20122;-78
2023/03/29 02:14:31;;;;;;;0.10;0.10;;;-0.70;99.90;;;;;;4988910;28;20387;-78
2023/03/29 02:17:17;;;;;;;0.20;0.20;;;-0.70;99.90;;;;;;5001625;28;20026;-78
2023/03/29 02:19:49;;;;;;;0.10;0.10;;;-0.80;99.90;;;;;;5009867;28;20026;-78
2023/03/29 02:22:23;;;;;;;0.10;0.10;;;-0.90;99.90;;;;;;5005863;28;20084;-79
2023/03/29 02:25:18;;;;;;;0.10;0.10;;;-0.70;99.90;;;;;;5010857;28;20337;-78
2023/03/29 02:27:45;;;;;;;0.10;0.10;;;-0.80;99.90;;;;;;5013710;28;20030;-77
2023/03/29 02:30:16;;;;;;;0.20;0.20;;;-0.70;99.90;;;;;;5010640;28;20108;-78
2023/03/29 02:33:12;;;;;;;0.10;0.10;;;-0.70;99.90;;;;;;5026602;28;20033;-78
2023/03/29 02:35:57;;;;;;;0.20;0.20;;;-0.60;99.90;;;;;;5029300;28;20565;-78
2023/03/29 02:38:26;;;;;;;0.10;0.10;;;-0.60;99.90;;;;;;5030579;28;20029;-78
2023/03/29 02:40:55;;;;;;;0.10;0.10;;;-2.40;99.90;;;;;;5030331;28;20037;-78
2023/03/29 02:43:23;;;;;;;0.20;0.20;;;-0.60;99.90;;;;;;5027833;28;20381;-78
2023/03/29 02:45:51;;;;;;;0.20;0.20;;;-0.60;99.90;;;;;;5010214;28;20232;-78
2023/03/29 02:48:20;;;;;;;0.20;0.20;;;-0.60;99.90;;;;;;5001791;28;20054;-78
2023/03/29 02:50:55;;;;;;;13.97;13.10;;;-0.60;99.90;;;;;;5004310;28;20090;-77
2023/03/29 02:53:34;;;;;;;0.20;0.20;;;-0.70;99.90;;;;;;5005131;28;20033;-79
2023/03/29 02:56:02;;;;;;;0.20;0.20;;;-0.70;99.90;;;;;;4987680;28;20062;-78
2023/03/29 02:58:29;;;;;;;0.13;0.13;;;0.00;99.90;;;;;;4989120;28;20089;-77
2023/03/29 03:00:58;;;;;;;0.20;0.20;;;-0.60;99.90;;;;;;5004857;28;20117;-77
2023/03/29 03:03:24;;;;;;;0.20;0.20;;;0.00;99.90;;;;;;5005945;28;20092;-78
2023/03/29 03:05:53;;;;;;;0.17;0.17;;;-0.70;99.90;;;;;;5004527;28;20038;-80
2023/03/29 03:08:19;;;;;;;0.20;0.20;;;;;;;;;;5008313;28;20119;-78
2023/03/29 03:10:46;;;;;;;0.20;0.20;;;-0.80;99.90;;;;;;5005168;28;20042;-77
2023/03/29 03:13:12;;;;;;;0.20;0.20;;;-0.80;99.90;;;;;;4991049;28;20057;-77
2023/03/29 03:15:41;;;;;;;0.20;0.20;;;-0.80;99.90;;;;;;5006456;28;20275;-78
2023/03/29 03:18:13;;;;;;;0.10;0.10;;;-1.10;99.90;;;;;;5006899;28;20018;-77
2023/03/29 03:20:39;;;;;;;0.10;0.10;;;-1.10;99.90;;;;;;5004231;28;20029;-78
2023/03/29 03:23:08;;;;;;;0.20;0.20;;;-1.10;99.90;;;;;;4993080;28;20105;-77
2023/03/29 03:25:35;;;;;;;0.20;0.20;;;-1.30;99.90;;;;;;5009131;28;20044;-77
2023/03/29 03:28:06;;;;;;;0.10;0.10;;;-1.20;99.90;;;;;;5007419;28;20030;-77
2023/03/29 03:30:34;;;;;;;0.10;0.10;;;-1.10;99.90;;;;;;5007939;28;20048;-77
2023/03/29 03:33:00;;;;;;;0.10;0.10;;;-1.20;99.90;;;;;;4990220;28;20125;-77
2023/03/29 03:35:29;;;;;;;0.10;0.10;;;-1.20;99.90;;;;;;5006438;28;20062;-78
2023/03/29 03:37:55;;;;;;;0.10;0.10;;;-1.10;99.90;;;;;;5008855;28;20117;-78
2023/03/29 03:40:23;;;;;;;0.20;0.20;;;-1.20;99.90;;;;;;5004987;28;20017;-78
2023/03/29 03:42:50;;;;;;;0.10;0.10;;;;;;;;;;5007016;28;20599;-78
2023/03/29 03:45:15;;;;;;;0.10;0.10;;;-1.40;99.90;;;;;;5015976;28;20333;-78
2023/03/29 03:47:41;;;;;;;0.10;0.10;;;-1.50;99.90;;;;;;5026423;28;20215;-77
2023/03/29 03:50:18;;;;;;;0.20;0.20;;;-1.60;99.90;;;;;;5023895;28;20084;-78
2023/03/29 03:52:44;;;;;;;0.10;0.10;;;-3.70;99.90;;;;;;5025766;28;20022;-78
2023/03/29 03:55:11;;;;;;;0.10;0.10;;;-1.60;99.90;;;;;;5025702;28;20405;-78
2023/03/29 03:57:37;;;;;;;0.20;0.20;;;-1.60;99.90;;;;;;5010683;28;20658;-78
2023/03/29 04:00:19;;;;;;;0.20;0.20;;;-1.60;99.90;;;;;;5026608;28;20048;-78
2023/03/29 04:02:47;;;;;;;0.10;0.10;;;-1.70;99.90;;;;;;5028384;28;20024;-78
2023/03/29 04:05:14;;;;;;;0.10;0.10;;;-1.70;99.90;;;;;;5029153;28;20026;-79
2023/03/29 04:07:41;;;;;;;0.10;0.10;;;-1.70;99.90;;;;;;5027809;28;20041;-79
2023/03/29 04:10:12;;;;;;;0.13;0.13;;;-1.70;99.90;;;;;;5012489;28;20520;-78
2023/03/29 04:12:38;;;;;;;0.20;0.20;;;-1.70;99.90;;;;;;5027736;28;20029;-77
2023/03/29 04:15:06;;;;;;;0.20;0.20;;;-1.70;99.90;;;;;;5013707;28;20072;-77
2023/03/29 04:17:35;;;;;;;0.10;0.10;;;-1.80;99.90;;;;;;5031692;28;20386;-78
2023/03/29 04:20:10;;;;;;;0.10;0.10;;;-1.60;99.90;;;;;;5028731;28;20068;-78
2023/03/29 04:22:40;;;;;;;23.60;22.50;;;-1.60;99.90;;;;;;5014857;28;20030;-79
2023/03/29 04:25:10;;;;;;;0.10;0.10;;;-1.70;99.90;;;;;;5007389;28;20142;-79
2023/03/29 04:27:36;;;;;;;0.10;0.10;;;-1.80;99.90;;;;;;5026666;28;20048;-78
2023/03/29 04:30:08;;;;;;;0.10;0.10;;;-1.80;99.90;;;;;;5026817;28;20031;-78
2023/03/29 04:32:34;;;;;;;0.10;0.10;;;-2.10;99.90;;;;;;5011153;28;20060;-78
2023/03/29 04:35:05;;;;;;;0.10;0.10;;;-1.80;99.90;;;;;;5004617;28;20034;-78
2023/03/29 04:37:39;;;;;;;0.17;0.17;;;-1.70;99.90;;;;;;5022359;28;20535;-78
2023/03/29 04:40:17;;;;;;;0.20;0.20;;;-3.60;99.90;;;;;;5021445;28;20067;-78
2023/03/29 04:42:46;;;;;;;0.10;0.10;;;-1.50;99.90;;;;;;5013787;28;20026;-78
2023/03/29 04:45:16;;;;;;;0.10;0.10;;;-1.50;99.90;;;;;;5025675;28;20044;-78
2023/03/29 04:47:44;;;;;;;0.10;0.10;;;;;;;;;;5009713;28;20358;-78
2023/03/29 04:50:10;;;;;;;0.20;0.20;;;-1.50;99.90;;;;;;5030396;28;20024;-78
2023/03/29 04:52:44;;;;;;;0.20;0.20;;;-1.50;99.90;;;;;;5027288;28;20590;-78
2023/03/29 04:55:11;;;;;;;0.10;0.10;;;-1.50;99.90;;;;;;5064319;28;20031;-78
2023/03/29 04:57:38;;;;;;;0.10;0.10;;;-1.50;99.90;;;;;;5111164;28;20028;-78
2023/03/29 05:00:14;;;;;;;0.10;0.10;;;-1.40;99.90;;;;;;5109312;28;20069;-78
2023/03/29 05:02:41;;;;;;;0.10;0.10;;;-1.40;99.90;;;;;;5110915;28;20015;-78
2023/03/29 05:05:12;;;;;;;0.10;0.10;;;-1.30;99.90;;;;;;5112279;28;20312;-78
2023/03/29 05:07:39;;;;;;;1.03;1.03;;;-1.60;99.90;;;;;;5112437;28;20023;-78
2023/03/29 05:10:08;;;;;;;0.10;0.10;;;-1.10;99.90;;;;;;5109417;28;20012;-78
2023/03/29 05:12:34;;;;;;;0.20;0.20;;;-1.10;99.90;;;;;;5096576;28;20368;-78
2023/03/29 05:15:09;;;;;;;0.10;0.10;;;-1.10;99.90;;;;;;5111655;28;20099;-78
2023/03/29 05:17:44;;;;;;;0.53;0.53;;;-1.00;99.90;;;;;;5064986;28;20032;-78
2023/03/29 05:20:14;;;;;;;0.17;0.17;;;-0.90;99.90;;;;;;5112696;28;20077;-81
2023/03/29 05:22:42;;;;;;;0.10;0.10;;;-1.30;99.90;;;;;;5088620;28;20482;-78
2023/03/29 05:25:12;;;;;;;0.20;0.20;;;-0.80;99.90;;;;;;5109126;28;20035;-78
2023/03/29 05:27:40;;;;;;;0.20;0.20;;;-1.70;99.90;;;;;;5111743;28;20123;-78
2023/03/29 05:30:08;;;;;;;0.17;0.17;;;-0.60;99.90;;;;;;5110945;28;20030;-78
2023/03/29 05:32:38;;;;;;;0.10;0.10;;;-0.60;99.90;;;;;;5088540;28;20020;-79
2023/03/29 05:35:08;;;;;;;0.20;0.20;;;-0.70;99.90;;;;;;5108010;28;20055;-79
2023/03/29 05:37:36;;;;;;;0.10;0.10;;;-0.60;99.90;;;;;;5071250;28;20024;-78
2023/03/29 05:40:07;;;;;;;0.20;0.20;;;1.00;99.90;;;;;;5110203;28;20080;-78
2023/03/29 05:42:39;;;;;;;0.10;0.10;;;-0.60;99.90;;;;;;5111591;28;20397;-79
2023/03/29 05:45:10;;;;;;;0.10;0.10;;;-0.70;99.90;;;;;;5102175;28;20044;-79
2023/03/29 05:47:47;;;;;;;0.20;0.20;;;-0.70;99.90;;;;;;5095605;28;20036;-78
2023/03/29 05:50:18;;;;;;;0.20;0.20;;;-0.40;99.90;;;;;;5074643;28;20025;-78
2023/03/29 05:52:51;;;;;;;0.15;0.15;;;-0.30;99.90;;;;;;5088886;28;20075;-78
2023/03/29 05:55:18;;;;;;;0.10;0.10;;;-0.30;99.90;;;;;;5070738;28;20028;-78
2023/03/29 05:57:46;;;;;;;0.10;0.10;;;-0.30;99.90;;;;;;5093025;28;20067;-78
2023/03/29 06:00:22;;;;;;;0.20;0.20;;;-0.80;99.90;;;;;;5098503;28;20024;-78
2023/03/29 06:02:51;;;;;;;0.13;0.13;;;-0.10;99.90;;;;;;5093206;28;20040;-79
2023/03/29 06:05:18;;;;;;;0.17;0.17;;;-0.20;99.90;;;;;;5061155;28;20059;-78
2023/03/29 06:07:47;;;;;;;0.20;0.20;;;-0.30;99.90;;;;;;5097513;28;20084;-78
2023/03/29 06:10:19;;;;;;;0.20;0.20;;;-0.40;99.90;;;;;;5092086;28;20103;-78
2023/03/29 06:13:03;;;;;;;0.20;0.20;;;-0.20;99.90;;;;;;5091409;28;20017;-79
2023/03/29 06:15:29;;;;;;;0.20;0.20;;;0.00;99.90;;;;;;5080721;28;20024;-79
2023/03/29 06:17:57;;;;;;;0.20;0.20;;;0.30;99.90;;;;;;5099225;28;20044;-78
2023/03/29 06:20:26;;;;;;;0.20;0.20;;;0.70;99.90;;;;;;5093894;28;20409;-78
2023/03/29 06:23:14;;;;;;;0.20;0.20;;;0.70;99.90;;;;;;5091766;28;20028;-79
2023/03/29 06:25:44;;;;;;;0.20;0.20;;;1.00;99.90;;;;;;5090789;28;20299;-79
2023/03/29 06:28:13;;;;;;;0.20;0.20;;;3.40;99.90;;;;;;5096590;28;20031;-79
2023/03/29 06:30:48;;;;;;;0.20;0.20;;;1.10;99.90;;;;;;5083694;28;20036;-78
2023/03/29 06:33:15;;;;;;;0.20;0.20;;;1.20;99.90;;;;;;5087045;28;20019;-79
2023/03/29 06:35:52;;;;;;;0.20;0.20;;;1.70;99.90;;;;;;5088416;28;20051;-79
2023/03/29 06:38:20;;;;;;;0.10;0.10;;;1.00;99.90;;;;;;5104111;28;20024;-80
2023/03/29 06:41:16;;;;;;;0.10;0.10;;;1.20;99.90;;;;;;5098292;28;20072;-79
2023/03/29 06:43:42;;;;;;;0.20;0.20;;;1.40;99.90;;;;;;5079307;28;20040;-78
2023/03/29 06:46:10;;;;;;;0.20;0.20;;;1.50;99.90;;;;;;5066631;28;20344;-78
2023/03/29 06:48:37;;;;;;;0.20;0.20;;;1.10;99.90;;;;;;5083817;28;20053;-79
2023/03/29 06:51:06;;;;;;;0.60;0.60;;;2.10;99.90;;;;;;5085753;28;20058;-78
2023/03/29 06:53:43;;;;;;;0.20;0.20;;;1.80;99.90;;;;;;5080864;28;20020;-78
2023/03/29 06:56:10;;;;;;;4.03;3.92;;;1.90;99.90;;;;;;5096708;28;20036;-79
2023/03/29 06:58:37;;;;;;;0.20;0.20;;;2.10;99.90;;;;;;5091620;28;20521;-78
2023/03/29 07:01:15;;;;;;;0.10;0.10;;;2.10;99.90;;;;;;5096509;28;20050;-77
2023/03/29 07:03:44;;;;;;;0.17;0.17;;;2.40;99.90;;;;;;5077492;28;20051;-79
2023/03/29 07:06:19;;;;;;;0.13;0.13;;;2.60;99.90;;;;;;5091946;28;20078;-77
2023/03/29 07:08:51;;;;;;;20.48;19.67;;;2.30;99.90;;;;;;5092166;28;20047;-79
2023/03/29 07:11:19;;;;;;;0.17;0.17;;;;;;;;;;5080406;28;20035;-78
2023/03/29 07:13:45;;;;;;;0.68;0.68;;;3.30;99.90;;;;;;5097471;28;20028;-78
2023/03/29 07:16:13;;;;;;;0.10;0.10;;;3.20;99.90;;;;;;5099812;28;20047;-78
2023/03/29 07:18:44;;;;;;;0.20;0.20;;;3.80;99.90;;;;;;5084314;28;20236;-78
2023/03/29 07:21:12;;;;;;;0.10;0.10;;;3.50;99.90;;;;;;5103254;28;20044;-77
2023/03/29 07:23:42;;;;;;;0.10;0.10;;;3.70;99.90;;;;;;5097734;28;20028;-76
2023/03/29 07:26:09;;;;;;;0.28;0.28;;;3.90;99.90;;;;;;5073741;28;20043;-77
2023/03/29 07:28:38;;;;;;;0.10;0.10;;;3.90;99.90;;;;;;5090621;28;20088;-78
2023/03/29 07:31:09;;;;;;;0.10;0.10;;;3.90;99.90;;;;;;5083112;28;20073;-78
2023/03/29 07:33:36;;;;;;;8.10;7.53;;;4.10;99.90;;;;;;5083631;28;20067;-75
2023/03/29 07:36:09;;;;;;;0.10;0.10;;;3.90;99.90;;;;;;5076006;28;20031;-76
2023/03/29 07:38:47;;;;;;;0.10;0.10;;;4.10;99.90;;;;;;5109897;28;20076;-78
2023/03/29 07:41:16;;;;;;;;;;;4.20;99.90;;;;;;5106204;28;20016;-78
2023/03/29 07:43:50;;;;;;;0.10;0.10;;;4.20;99.90;;;;;;5083104;28;19904;-78
2023/03/29 07:46:28;;;;;;;0.10;0.10;;;4.30;99.90;;;;;;5080172;28;20238;-78
2023/03/29 07:48:55;;;;;;;0.10;0.10;;;4.40;99.90;;;;;;5095596;28;20059;-78
2023/03/29 07:51:27;;;;;;;0.30;0.30;;;4.60;99.90;;;;;;5079186;28;20027;-80
2023/03/29 07:53:59;;;;;;;0.10;0.10;;;6.70;99.90;;;;;;5100158;28;20020;-80
2023/03/29 07:56:36;;;;;;;0.10;0.10;;;5.10;99.90;;;;;;5090322;28;20020;-80
2023/03/29 07:59:36;;;;;;;0.00;0.00;;;3.80;99.90;;;;;;5072389;28;20032;-80
2023/03/29 08:02:21;;;;;;;0.10;0.10;;;3.60;99.90;;;;;;5069990;28;20020;-80
2023/03/29 08:04:53;;;;;;;0.00;0.00;;;5.80;99.90;;;;;;5070474;28;20020;-80
2023/03/29 08:07:19;;;;;;;0.10;0.10;;;;;;;;;;5069277;28;20032;-79
2023/03/29 08:09:45;;;;;;;0.10;0.10;;;;;;;;;;5053408;28;20047;-79
2023/03/29 08:12:12;;;;;;;171.18;75.63;;;;;;;;;;5070074;28;20099;-78
2023/03/29 08:14:38;;;;;;;0.10;0.10;;;;;;;;;;5070824;23;20033;-79
2023/03/29 08:17:05;;;;;;;0.10;0.10;;;6.30;93.40;;;;;;5033411;28;20041;-77
2023/03/29 08:19:31;;;;;;;0.05;0.05;;;;;;;;;;5044399;28;20032;-78
2023/03/29 08:21:56;;;;;;;0.00;0.00;;;6.50;93.70;;;;;;5051783;28;20079;-78
2023/03/29 08:24:27;;;;;;;0.00;0.00;;;6.60;93.90;;;;;;5034509;28;20016;-77
2023/03/29 08:26:53;;;;;;;0.10;0.10;;;6.70;90.80;;;;;;5049835;28;20029;-76
2023/03/29 08:29:19;;;;;;;0.00;0.00;;;;;;;;;;5052420;28;20032;-76
2023/03/29 08:31:45;;;;;;;0.00;0.00;;;7.00;78.10;;;;;;5051179;28;20060;-75
2023/03/29 08:34:11;;;;;;;0.00;0.00;;;7.00;79.60;;;;;;5049659;28;20039;-76
2023/03/29 08:36:37;;;;;;;1.85;1.85;;;6.80;79.80;;;;;;5047847;28;20024;-75
2023/03/29 08:39:04;;;;;;;0.00;0.00;;;7.00;78.60;;;;;;5035719;28;20021;-75
2023/03/29 08:41:48;;;;;;;0.00;0.00;;;7.00;84.60;;;;;;5049910;28;20033;-74
2023/03/29 08:44:32;;;;;;;;;;;7.30;81.60;;;;;;5054890;28;20021;-75
2023/03/29 08:47:27;;;;;;;0.00;0.00;;;7.70;82.90;;;;;;5032551;28;20118;-75
2023/03/29 08:49:55;;;;;;;0.22;0.22;;;7.60;82.00;;;;;;5027728;28;20013;-74
2023/03/29 08:52:32;;;;;;;0.00;0.00;;;7.70;82.10;;;;;;5010542;28;20026;-75
2023/03/29 08:55:00;;;;;;;1.23;1.23;;;8.50;81.50;;;;;;5025128;28;20048;-75
2023/03/29 08:57:39;;;;;;;0.00;0.00;;;7.70;83.10;;;;;;5030814;28;20028;-75
2023/03/29 09:00:09;;;;;;;0.10;0.10;;;7.90;73.90;;;;;;5024215;28;20029;-74
2023/03/29 09:02:36;;;;;;;0.00;0.00;;;7.90;74.20;;;;;;5021462;28;20083;-74
2023/03/29 09:05:16;;;;;;;0.10;0.10;;;7.90;72.20;;;;;;5006921;28;20029;-75
2023/03/29 09:07:45;;;;;;;0.00;0.00;;;8.10;70.40;;;;;;5024202;28;20094;-75
2023/03/29 09:10:17;;;;;;;0.00;0.00;;;8.10;67.70;;;;;;5023922;28;20022;-75
2023/03/29 09:13:25;;;;;;;0.00;0.00;;;8.10;66.00;;;;;;5021680;28;20041;-73
2023/03/29 09:15:59;;;;;;;0.00;0.00;;;8.00;66.10;;;;;;4921439;29;20135;-74
2023/03/29 09:18:44;;;;;;;0.08;0.08;;;8.30;65.90;;;;;;4920877;29;20043;-75
2023/03/29 09:21:21;;;;;;;0.00;0.00;;;8.40;64.00;;;;;;4923317;29;20114;-75
2023/03/29 09:24:02;;;;;;;0.00;0.00;;;8.40;61.90;;;;;;4926592;29;20043;-75
2023/03/29 09:26:33;;;;;;;0.10;0.10;;;8.30;62.60;;;;;;4925835;29;20139;-75
2023/03/29 09:29:27;;;;;;;0.00;0.00;;;8.60;69.90;;;;;;4923319;29;20671;-75
2023/03/29 09:31:55;;;;;;;0.00;0.00;;;8.90;67.00;;;;;;4922271;29;20165;-74
2023/03/29 09:34:27;;;;;;;0.00;0.00;;;8.90;67.30;;;;;;4907578;29;20126;-74
2023/03/29 09:36:56;;;;;;;0.00;0.00;;;9.10;64.60;;;;;;4922373;29;20035;-75
2023/03/29 09:39:22;;;;;;;0.10;0.10;;;9.50;64.10;;;;;;4923438;29;20020;-76
2023/03/29 09:42:09;;;;;;;0.30;0.30;;;9.80;60.30;;;;;;4921688;29;20167;-76
2023/03/29 09:45:07;;;;;;;0.10;0.10;;;10.00;59.50;;;;;;4921478;29;20035;-76
2023/03/29 09:47:39;;;;;;;0.10;0.10;;;10.10;57.70;;;;;;4904968;29;20032;-76
2023/03/29 09:50:12;;;;;;;;;;;10.20;56.70;;;;;;4987519;28;20052;-75
2023/03/29 09:52:38;;;;;;;0.10;0.10;;;10.00;56.00;;;;;;5022895;28;19901;-75
2023/03/29 09:55:05;;;;;;;0.10;0.10;;;10.00;57.30;;;;;;5002652;28;20121;-75
2023/03/29 09:57:31;;;;;;;0.10;0.10;;;10.00;57.90;;;;;;5020354;28;20052;-75
2023/03/29 10:00:00;;;;;;;0.10;0.10;;;10.00;59.50;;;;;;5020349;28;20041;-75
2023/03/29 10:02:30;;;;;;;0.20;0.20;;;10.10;59.10;;;;;;5021665;28;20019;-75
2023/03/29 10:04:59;;;;;;;0.10;0.10;;;10.20;59.50;;;;;;5003989;28;20079;-75
2023/03/29 10:07:35;;;;;;;0.20;0.20;;;10.30;60.30;;;;;;5020200;28;20026;-76
2023/03/29 10:10:06;;;;;;;0.10;0.10;;;10.70;60.40;;;;;;5024076;28;20040;-75
2023/03/29 10:12:33;;;;;;;0.10;0.10;;;11.00;60.40;;;;;;5007380;28;20412;-75
2023/03/29 10:15:00;;;;;;;0.10;0.10;;;11.30;58.70;;;;;;5008726;28;20432;-75
2023/03/29 10:17:28;;;;;;;0.10;0.10;;;11.70;60.10;;;;;;5021367;28;20701;-76
2023/03/29 10:20:00;;;;;;;0.52;0.52;;;11.80;58.10;;;;;;5018224;28;20024;-75
2023/03/29 10:22:36;;;;;;;0.85;0.85;;;11.70;57.80;;;;;;5018737;28;20026;-77
2023/03/29 10:25:03;;;;;;;0.30;0.30;;;11.90;58.00;;;;;;5017830;28;20024;-77
2023/03/29 10:27:33;;;;;;;0.20;0.20;;;11.70;59.00;;;;;;5017583;28;20087;-76
2023/03/29 10:30:07;;;;;;;0.10;0.10;;;12.30;59.80;;;;;;5018174;28;20028;-74
2023/03/29 10:32:34;;;;;;;;;;;12.20;58.70;;;;;;5018037;28;20718;-78
2023/03/29 10:35:19;;;;;;;0.15;0.15;;;12.50;60.30;;;;;;5017611;28;19963;-79
2023/03/29 10:37:50;;;;;;;0.10;0.10;;;12.70;58.10;;;;;;5017310;28;20482;-76
2023/03/29 10:40:31;;;;;;;0.20;0.20;;;13.10;57.60;;;;;;5020633;28;20060;-75
2023/03/29 10:43:20;;;;;;;3.42;2.40;;;13.40;57.50;;;;;;5020719;28;20014;-76
2023/03/29 10:45:51;;;;;;;0.20;0.20;;;13.20;57.20;;;;;;5020475;28;20071;-78
2023/03/29 10:48:18;;;;;;;0.20;0.20;;;13.20;55.40;;;;;;5020516;28;20025;-76
2023/03/29 10:50:51;;;;;;;0.10;0.10;;;13.40;54.80;;;;;;5003284;28;20021;-76
2023/03/29 10:53:25;;;;;;;0.10;0.10;;;13.40;53.80;;;;;;5020709;28;20097;-76
2023/03/29 10:56:04;;;;;;;0.10;0.10;;;13.60;54.30;;;;;;5002017;28;20044;-75
2023/03/29 10:58:41;;;;;;;0.10;0.10;;;13.40;52.30;;;;;;5002588;28;20536;-75
2023/03/29 11:01:16;;;;;;;0.20;0.20;;;13.80;52.30;;;;;;5020456;28;20060;-75
2023/03/29 11:04:05;;;;;;;0.20;0.20;;;15.20;50.70;;;;;;5020091;28;20278;-74
2023/03/29 11:06:42;;;;;;;0.10;0.10;;;13.60;50.90;;;;;;5002630;28;20068;-75
2023/03/29 11:09:20;;;;;;;0.20;0.20;;;14.00;50.80;;;;;;5020912;28;20315;-77
2023/03/29 11:12:09;;;;;;;0.10;0.10;;;14.30;49.60;;;;;;5020744;28;20083;-76
2023/03/29 11:14:52;;;;;;;0.20;0.20;;;14.30;49.00;;;;;;5019087;28;20393;-76
2023/03/29 11:17:26;;;;;;;0.10;0.10;;;14.50;51.40;;;;;;5020077;28;20107;-75
2023/03/29 11:20:16;;;;;;;0.10;0.10;;;14.50;49.00;;;;;;5020244;28;20022;-75
2023/03/29 11:22:46;;;;;;;0.20;0.20;;;14.20;47.90;;;;;;5019930;28;20526;-79
2023/03/29 11:25:21;;;;;;;0.38;0.38;;;14.10;49.20;;;;;;5019761;28;20638;-75
2023/03/29 11:28:18;;;;;;;0.68;0.68;;;14.20;50.20;;;;;;5019777;28;20042;-75
2023/03/29 11:30:57;;;;;;;0.20;0.20;;;14.10;50.20;;;;;;5004921;28;20035;-76
2023/03/29 11:33:49;;;;;;;0.20;0.20;;;13.90;50.10;;;;;;5002696;28;20576;-74
2023/03/29 11:36:26;;;;;;;0.20;0.20;;;13.90;50.00;;;;;;5003762;28;20034;-75
2023/03/29 11:39:29;;;;;;;0.10;0.10;;;14.20;50.80;;;;;;4987569;28;20030;-75
2023/03/29 11:42:03;;;;;;;0.30;0.30;;;14.30;50.20;;;;;;5020246;28;20022;-74
2023/03/29 11:44:34;;;;;;;1.27;1.27;;;14.40;49.50;;;;;;5020450;28;20025;-74
2023/03/29 11:47:21;;;;;;;2.25;2.15;;;14.30;49.90;;;;;;5020364;28;20091;-75
2023/03/29 11:49:56;;;;;;;3.40;3.20;;;14.30;49.90;;;;;;5020170;28;20021;-75
2023/03/29 11:52:32;;;;;;;0.13;0.13;;;14.40;51.80;;;;;;5020122;28;20028;-74
2023/03/29 11:55:06;;;;;;;0.15;0.15;;;15.10;50.90;;;;;;5020061;28;20045;-75
2023/03/29 11:57:46;;;;;;;0.10;0.10;;;15.10;50.00;;;;;;5020710;28;20665;-74
2023/03/29 12:00:37;;;;;;;0.10;0.10;;;14.70;48.10;;;;;;5019880;28;20034;-75
2023/03/29 12:03:11;;;;;;;0.20;0.20;;;14.50;48.70;;;;;;5019252;28;20120;-76
2023/03/29 12:05:53;;;;;;;0.13;0.13;;;14.90;49.60;;;;;;5019675;28;20110;-75
2023/03/29 12:08:26;;;;;;;0.10;0.10;;;15.20;49.80;;;;;;5020333;28;20029;-75
2023/03/29 12:10:57;;;;;;;;;;;15.30;48.90;;;;;;5020363;28;20041;-80
2023/03/29 12:13:44;;;;;;;0.55;0.55;;;15.60;47.30;;;;;;5020099;28;19901;-80
2023/03/29 12:16:39;;;;;;;0.10;0.10;;;15.90;48.20;;;;;;5002345;28;20042;-75
2023/03/29 12:19:24;;;;;;;0.20;0.20;;;16.10;47.00;;;;;;5020915;28;20022;-76
2023/03/29 12:21:54;;;;;;;0.15;0.15;;;15.60;47.00;;;;;;5020318;28;20021;-76
2023/03/29 12:24:21;;;;;;;0.10;0.10;;;16.60;45.60;;;;;;5020732;28;20021;-75
2023/03/29 12:27:06;;;;;;;0.17;0.17;;;16.60;44.70;;;;;;5019108;28;20076;-74
2023/03/29 12:29:48;;;;;;;0.10;0.10;;;16.40;44.80;;;;;;5019259;28;20018;-75
2023/03/29 12:32:51;;;;;;;0.10;0.10;;;15.90;46.20;;;;;;5019286;28;20037;-74
2023/03/29 12:35:33;;;;;;;0.52;0.52;;;16.10;46.70;;;;;;5019609;28;20115;-74
2023/03/29 12:38:18;;;;;;;0.10;0.10;;;16.30;48.50;;;;;;5001438;28;20022;-76
2023/03/29 12:40:46;;;;;;;0.45;0.45;;;16.60;48.90;;;;;;5019223;28;20053;-74
2023/03/29 12:43:40;;;;;;;0.38;0.38;;;16.50;47.90;;;;;;5019267;28;20083;-75
2023/03/29 12:46:13;;;;;;;1.08;1.08;;;16.90;46.30;;;;;;4997649;28;20128;-75
2023/03/29 12:48:41;;;;;;;3.63;1.88;;;16.90;46.10;;;;;;5019378;28;20026;-80
2023/03/29 12:51:14;;;;;;;0.10;0.10;;;17.00;48.60;;;;;;5018727;28;20021;-75
2023/03/29 12:53:51;;;;;;;;;;;17.10;45.10;;;;;;5018905;28;20025;-74
2023/03/29 12:56:22;;;;;;;0.10;0.10;;;17.30;46.20;;;;;;5018608;28;19909;-75
2023/03/29 12:58:51;;;;;;;0.10;0.10;;;17.50;45.40;;;;;;5001218;28;20033;-75
2023/03/29 13:01:31;;;;;;;0.10;0.10;;;17.40;44.70;;;;;;5019466;28;20017;-76
2023/03/29 13:04:00;;;;;;;0.10;0.10;;;17.60;44.20;;;;;;5018361;28;20018;-75
2023/03/29 13:06:31;;;;;;;0.10;0.10;;;17.00;43.80;;;;;;5019703;28;20025;-74
2023/03/29 13:09:21;;;;;;;0.20;0.20;;;17.40;44.80;;;;;;5001222;28;20105;-75
2023/03/29 13:12:09;;;;;;;0.10;0.10;;;17.80;44.30;;;;;;5019383;28;20022;-77
2023/03/29 13:14:39;;;;;;;0.30;0.30;;;17.00;44.30;;;;;;5018738;28;20262;-74
2023/03/29 13:17:51;;;;;;;0.10;0.10;;;16.60;46.40;;;;;;5001457;28;20014;-74
2023/03/29 13:21:08;;;;;;;0.10;0.10;;;16.90;45.50;;;;;;4862773;29;20036;-73
2023/03/29 13:23:37;;;;;;;0.10;0.10;;;16.80;44.80;;;;;;4862762;29;20037;-74
2023/03/29 13:26:10;;;;;;;0.10;0.10;;;16.90;45.20;;;;;;4862530;29;20679;-74
2023/03/29 13:29:07;;;;;;;0.08;0.08;;;16.20;44.20;;;;;;4863084;29;20037;-75